sensor_id;sensor_type;location;lat;lon;timestamp;temperature;humidity
21861;DHT22;11095;48.066;8.540;2024-02-21T00:00:14;1.10;99.90
21861;DHT22;11095;48.066;8.540;2024-02-21T00:02:40;1.10;99.90
21861;DHT22;11095;48.066;8.540;2024-02-21T00:05:05;1.20;99.90
21861;DHT22;11095;48.066;8.540;2024-02-21T00:07:31;1.20;99.90
21861;DHT22;11095;48.066;8.540;2024-02-21T00:09:56;1.20;99.90
21861;DHT22;11095;48.066;8.540;2024-02-21T00:12:22;1.20;99.90
21861;DHT22;11095;48.066;8.540;2024-02-21T00:14:47;1.20;99.90
21861;DHT22;11095;48.066;8.540;2024-02-21T00:17:13;1.20;99.90
21861;DHT22;11095;48.066;8.540;2024-02-21T00:19:38;1.20;99.90
21861;DHT22;11095;48.066;8.540;2024-02-21T00:22:04;1.20;99.90
21861;DHT22;11095;48.066;8.540;2024-02-21T00:24:30;1.20;99.90
21861;DHT22;11095;48.066;8.540;2024-02-21T00:26:55;1.20;99.90
21861;DHT22;11095;48.066;8.540;2024-02-21T00:29:21;1.30;99.90
21861;DHT22;11095;48.066;8.540;2024-02-21T00:31:47;1.30;99.90
21861;DHT22;11095;48.066;8.540;2024-02-21T00:34:13;1.30;99.90
21861;DHT22;11095;48.066;8.540;2024-02-21T00:36:38;1.30;99.90
21861;DHT22;11095;48.066;8.540;2024-02-21T00:39:04;1.40;99.90
21861;DHT22;11095;48.066;8.540;2024-02-21T00:41:30;1.40;99.90
21861;DHT22;11095;48.066;8.540;2024-02-21T00:43:55;1.40;99.90
21861;DHT22;11095;48.066;8.540;2024-02-21T00:46:21;1.50;99.90
21861;DHT22;11095;48.066;8.540;2024-02-21T00:48:46;1.50;99.90
21861;DHT22;11095;48.066;8.540;2024-02-21T00:51:12;1.50;99.90
21861;DHT22;11095;48.066;8.540;2024-02-21T00:53:37;1.60;99.90
21861;DHT22;11095;48.066;8.540;2024-02-21T00:56:05;1.60;99.90
21861;DHT22;11095;48.066;8.540;2024-02-21T00:58:31;1.60;99.90
21861;DHT22;11095;48.066;8.540;2024-02-21T01:00:56;1.60;99.90
21861;DHT22;11095;48.066;8.540;2024-02-21T01:03:22;1.60;99.90
21861;DHT22;11095;48.066;8.540;2024-02-21T01:05:47;1.60;99.90
21861;DHT22;11095;48.066;8.540;2024-02-21T01:08:13;1.70;99.90
21861;DHT22;11095;48.066;8.540;2024-02-21T01:10:38;1.70;99.90
21861;DHT22;11095;48.066;8.540;2024-02-21T01:13:04;1.70;99.90
21861;DHT22;11095;48.066;8.540;2024-02-21T01:15:30;1.80;99.90
21861;DHT22;11095;48.066;8.540;2024-02-21T01:17:55;1.80;99.90
21861;DHT22;11095;48.066;8.540;2024-02-21T01:20:21;1.80;99.90
21861;DHT22;11095;48.066;8.540;2024-02-21T01:22:47;1.90;99.90
21861;DHT22;11095;48.066;8.540;2024-02-21T01:25:12;1.90;99.90
21861;DHT22;11095;48.066;8.540;2024-02-21T01:27:38;1.90;99.90
21861;DHT22;11095;48.066;8.540;2024-02-21T01:30:04;1.90;99.90
21861;DHT22;11095;48.066;8.540;2024-02-21T01:32:31;1.90;99.90
21861;DHT22;11095;48.066;8.540;2024-02-21T01:34:56;1.90;99.90
21861;DHT22;11095;48.066;8.540;2024-02-21T01:37:22;1.90;99.90
21861;DHT22;11095;48.066;8.540;2024-02-21T01:39:47;1.90;99.90
21861;DHT22;11095;48.066;8.540;2024-02-21T01:42:14;1.90;99.90
21861;DHT22;11095;48.066;8.540;2024-02-21T01:44:40;1.80;99.90
21861;DHT22;11095;48.066;8.540;2024-02-21T01:47:07;1.80;99.90
21861;DHT22;11095;48.066;8.540;2024-02-21T01:49:33;1.80;99.90
21861;DHT22;11095;48.066;8.540;2024-02-21T01:51:59;1.80;99.90
21861;DHT22;11095;48.066;8.540;2024-02-21T01:54:26;1.70;99.90
21861;DHT22;11095;48.066;8.540;2024-02-21T01:56:54;1.70;99.90
21861;DHT22;11095;48.066;8.540;2024-02-21T01:59:21;1.70;99.90
21861;DHT22;11095;48.066;8.540;2024-02-21T02:01:47;1.70;99.90
21861;DHT22;11095;48.066;8.540;2024-02-21T02:04:13;1.70;99.90
21861;DHT22;11095;48.066;8.540;2024-02-21T02:06:40;1.70;99.90
21861;DHT22;11095;48.066;8.540;2024-02-21T02:09:06;1.70;99.90
21861;DHT22;11095;48.066;8.540;2024-02-21T02:11:32;1.70;99.90
21861;DHT22;11095;48.066;8.540;2024-02-21T02:13:58;1.70;99.90
21861;DHT22;11095;48.066;8.540;2024-02-21T02:16:24;1.70;99.90
21861;DHT22;11095;48.066;8.540;2024-02-21T02:18:49;1.70;99.90
21861;DHT22;11095;48.066;8.540;2024-02-21T02:21:27;1.70;99.90
21861;DHT22;11095;48.066;8.540;2024-02-21T02:23:54;1.70;99.90
21861;DHT22;11095;48.066;8.540;2024-02-21T02:26:19;1.70;99.90
21861;DHT22;11095;48.066;8.540;2024-02-21T02:28:45;1.70;99.90
21861;DHT22;11095;48.066;8.540;2024-02-21T02:31:11;1.70;99.90
21861;DHT22;11095;48.066;8.540;2024-02-21T02:33:36;1.70;99.90
21861;DHT22;11095;48.066;8.540;2024-02-21T02:36:02;1.70;99.90
21861;DHT22;11095;48.066;8.540;2024-02-21T02:38:27;1.70;99.90
21861;DHT22;11095;48.066;8.540;2024-02-21T02:40:53;1.70;99.90
21861;DHT22;11095;48.066;8.540;2024-02-21T02:43:18;1.70;99.90
21861;DHT22;11095;48.066;8.540;2024-02-21T02:45:44;1.60;99.90
21861;DHT22;11095;48.066;8.540;2024-02-21T02:48:10;1.60;99.90
21861;DHT22;11095;48.066;8.540;2024-02-21T02:50:35;1.60;99.90
21861;DHT22;11095;48.066;8.540;2024-02-21T02:53:01;1.60;99.90
21861;DHT22;11095;48.066;8.540;2024-02-21T02:55:26;1.60;99.90
21861;DHT22;11095;48.066;8.540;2024-02-21T02:57:52;1.50;99.90
21861;DHT22;11095;48.066;8.540;2024-02-21T03:00:17;1.50;99.90
21861;DHT22;11095;48.066;8.540;2024-02-21T03:02:46;1.50;99.90
21861;DHT22;11095;48.066;8.540;2024-02-21T03:05:23;1.60;99.90
21861;DHT22;11095;48.066;8.540;2024-02-21T03:07:49;1.60;99.90
21861;DHT22;11095;48.066;8.540;2024-02-21T03:10:15;1.60;99.90
21861;DHT22;11095;48.066;8.540;2024-02-21T03:12:44;1.60;99.90
21861;DHT22;11095;48.066;8.540;2024-02-21T03:15:10;1.60;99.90
21861;DHT22;11095;48.066;8.540;2024-02-21T03:17:35;1.70;99.90
21861;DHT22;11095;48.066;8.540;2024-02-21T03:20:05;1.70;99.90
21861;DHT22;11095;48.066;8.540;2024-02-21T03:22:31;1.70;99.90
21861;DHT22;11095;48.066;8.540;2024-02-21T03:24:58;1.70;99.90
21861;DHT22;11095;48.066;8.540;2024-02-21T03:27:23;1.70;99.90
21861;DHT22;11095;48.066;8.540;2024-02-21T03:29:49;1.60;99.90
21861;DHT22;11095;48.066;8.540;2024-02-21T03:32:14;1.60;99.90
21861;DHT22;11095;48.066;8.540;2024-02-21T03:34:40;1.60;99.90
21861;DHT22;11095;48.066;8.540;2024-02-21T03:37:05;1.60;99.90
21861;DHT22;11095;48.066;8.540;2024-02-21T03:39:31;1.60;99.90
21861;DHT22;11095;48.066;8.540;2024-02-21T03:41:58;1.50;99.90
21861;DHT22;11095;48.066;8.540;2024-02-21T03:44:26;1.50;99.90
21861;DHT22;11095;48.066;8.540;2024-02-21T03:46:51;1.50;99.90
21861;DHT22;11095;48.066;8.540;2024-02-21T03:49:17;1.50;99.90
21861;DHT22;11095;48.066;8.540;2024-02-21T03:51:43;1.40;99.90
21861;DHT22;11095;48.066;8.540;2024-02-21T03:54:09;1.40;99.90
21861;DHT22;11095;48.066;8.540;2024-02-21T03:56:37;1.40;99.90
21861;DHT22;11095;48.066;8.540;2024-02-21T03:59:08;1.40;99.90
21861;DHT22;11095;48.066;8.540;2024-02-21T04:01:36;1.40;99.90
21861;DHT22;11095;48.066;8.540;2024-02-21T04:04:02;1.40;99.90
21861;DHT22;11095;48.066;8.540;2024-02-21T04:06:27;1.30;99.90
21861;DHT22;11095;48.066;8.540;2024-02-21T04:08:53;1.30;99.90
21861;DHT22;11095;48.066;8.540;2024-02-21T04:11:19;1.30;99.90
21861;DHT22;11095;48.066;8.540;2024-02-21T04:13:45;1.30;99.90
21861;DHT22;11095;48.066;8.540;2024-02-21T04:16:14;1.20;99.90
21861;DHT22;11095;48.066;8.540;2024-02-21T04:18:40;1.20;99.90
21861;DHT22;11095;48.066;8.540;2024-02-21T04:21:05;1.10;99.90
21861;DHT22;11095;48.066;8.540;2024-02-21T04:23:31;1.10;99.90
21861;DHT22;11095;48.066;8.540;2024-02-21T04:25:56;1.10;99.90
21861;DHT22;11095;48.066;8.540;2024-02-21T04:28:22;1.00;99.90
21861;DHT22;11095;48.066;8.540;2024-02-21T04:30:47;1.00;99.90
21861;DHT22;11095;48.066;8.540;2024-02-21T04:33:13;1.00;99.90
21861;DHT22;11095;48.066;8.540;2024-02-21T04:35:38;1.00;99.90
21861;DHT22;11095;48.066;8.540;2024-02-21T04:38:05;1.00;99.90
21861;DHT22;11095;48.066;8.540;2024-02-21T04:40:30;1.00;99.90
21861;DHT22;11095;48.066;8.540;2024-02-21T04:42:57;1.00;99.90
21861;DHT22;11095;48.066;8.540;2024-02-21T04:45:22;1.00;99.90
21861;DHT22;11095;48.066;8.540;2024-02-21T04:47:48;1.00;99.90
21861;DHT22;11095;48.066;8.540;2024-02-21T04:50:14;1.10;99.90
21861;DHT22;11095;48.066;8.540;2024-02-21T04:52:39;1.10;99.90
21861;DHT22;11095;48.066;8.540;2024-02-21T04:55:05;1.10;99.90
21861;DHT22;11095;48.066;8.540;2024-02-21T04:57:31;1.20;99.90
21861;DHT22;11095;48.066;8.540;2024-02-21T04:59:57;1.20;99.90
21861;DHT22;11095;48.066;8.540;2024-02-21T05:02:22;1.20;99.90
21861;DHT22;11095;48.066;8.540;2024-02-21T05:04:50;1.20;99.90
21861;DHT22;11095;48.066;8.540;2024-02-21T05:07:15;1.20;99.90
21861;DHT22;11095;48.066;8.540;2024-02-21T05:09:42;1.30;99.90
21861;DHT22;11095;48.066;8.540;2024-02-21T05:12:08;1.30;99.90
21861;DHT22;11095;48.066;8.540;2024-02-21T05:14:34;1.30;99.90
21861;DHT22;11095;48.066;8.540;2024-02-21T05:16:59;1.30;99.90
21861;DHT22;11095;48.066;8.540;2024-02-21T05:19:25;1.30;99.90
21861;DHT22;11095;48.066;8.540;2024-02-21T05:21:50;1.30;99.90
21861;DHT22;11095;48.066;8.540;2024-02-21T05:24:16;1.40;99.90
21861;DHT22;11095;48.066;8.540;2024-02-21T05:26:42;1.40;99.90
21861;DHT22;11095;48.066;8.540;2024-02-21T05:29:07;1.40;99.90
21861;DHT22;11095;48.066;8.540;2024-02-21T05:34:17;1.40;99.90
21861;DHT22;11095;48.066;8.540;2024-02-21T05:36:43;1.40;99.90
21861;DHT22;11095;48.066;8.540;2024-02-21T05:39:08;1.40;99.90
21861;DHT22;11095;48.066;8.540;2024-02-21T05:41:34;1.40;99.90
21861;DHT22;11095;48.066;8.540;2024-02-21T05:44:00;1.40;99.90
21861;DHT22;11095;48.066;8.540;2024-02-21T05:46:25;1.40;99.90
21861;DHT22;11095;48.066;8.540;2024-02-21T05:48:51;1.40;99.90
21861;DHT22;11095;48.066;8.540;2024-02-21T05:51:16;1.40;99.90
21861;DHT22;11095;48.066;8.540;2024-02-21T05:53:42;1.40;99.90
21861;DHT22;11095;48.066;8.540;2024-02-21T05:56:11;1.50;99.90
21861;DHT22;11095;48.066;8.540;2024-02-21T05:58:37;1.50;99.90
21861;DHT22;11095;48.066;8.540;2024-02-21T06:01:03;1.60;99.90
21861;DHT22;11095;48.066;8.540;2024-02-21T06:03:30;1.60;99.90
21861;DHT22;11095;48.066;8.540;2024-02-21T06:05:55;1.60;99.90
21861;DHT22;11095;48.066;8.540;2024-02-21T06:08:21;1.60;99.90
21861;DHT22;11095;48.066;8.540;2024-02-21T06:10:47;1.60;99.90
21861;DHT22;11095;48.066;8.540;2024-02-21T06:13:14;1.50;99.90
21861;DHT22;11095;48.066;8.540;2024-02-21T06:15:40;1.50;99.90
21861;DHT22;11095;48.066;8.540;2024-02-21T06:18:05;1.50;99.90
21861;DHT22;11095;48.066;8.540;2024-02-21T06:20:31;1.50;99.90
21861;DHT22;11095;48.066;8.540;2024-02-21T06:22:57;1.50;99.90
21861;DHT22;11095;48.066;8.540;2024-02-21T06:25:22;1.50;99.90
21861;DHT22;11095;48.066;8.540;2024-02-21T06:27:48;1.60;99.90
21861;DHT22;11095;48.066;8.540;2024-02-21T06:30:13;1.60;99.90
21861;DHT22;11095;48.066;8.540;2024-02-21T06:32:39;1.60;99.90
21861;DHT22;11095;48.066;8.540;2024-02-21T06:35:05;1.60;99.90
21861;DHT22;11095;48.066;8.540;2024-02-21T06:37:31;1.60;99.90
21861;DHT22;11095;48.066;8.540;2024-02-21T06:39:58;1.70;99.90
21861;DHT22;11095;48.066;8.540;2024-02-21T06:42:26;2.10;99.90
21861;DHT22;11095;48.066;8.540;2024-02-21T06:44:52;2.50;99.90
21861;DHT22;11095;48.066;8.540;2024-02-21T06:47:17;2.90;99.90
21861;DHT22;11095;48.066;8.540;2024-02-21T06:49:43;3.10;99.90
21861;DHT22;11095;48.066;8.540;2024-02-21T06:52:13;3.00;99.90
21861;DHT22;11095;48.066;8.540;2024-02-21T06:54:41;2.90;99.90
21861;DHT22;11095;48.066;8.540;2024-02-21T06:57:07;2.90;99.90
21861;DHT22;11095;48.066;8.540;2024-02-21T06:59:32;2.80;99.90
21861;DHT22;11095;48.066;8.540;2024-02-21T07:01:58;2.90;99.90
21861;DHT22;11095;48.066;8.540;2024-02-21T07:04:23;2.90;99.90
21861;DHT22;11095;48.066;8.540;2024-02-21T07:06:49;2.90;99.90
21861;DHT22;11095;48.066;8.540;2024-02-21T07:09:15;3.10;99.90
21861;DHT22;11095;48.066;8.540;2024-02-21T07:11:40;3.40;99.90
21861;DHT22;11095;48.066;8.540;2024-02-21T07:14:06;3.80;99.90
21861;DHT22;11095;48.066;8.540;2024-02-21T07:16:31;4.50;99.90
21861;DHT22;11095;48.066;8.540;2024-02-21T07:18:58;5.20;99.90
21861;DHT22;11095;48.066;8.540;2024-02-21T07:21:23;5.90;99.90
21861;DHT22;11095;48.066;8.540;2024-02-21T07:23:49;6.50;99.90
21861;DHT22;11095;48.066;8.540;2024-02-21T07:26:14;7.30;99.90
21861;DHT22;11095;48.066;8.540;2024-02-21T07:28:40;8.10;99.90
21861;DHT22;11095;48.066;8.540;2024-02-21T07:31:05;8.80;99.90
21861;DHT22;11095;48.066;8.540;2024-02-21T07:33:31;9.20;99.90
21861;DHT22;11095;48.066;8.540;2024-02-21T07:35:57;9.60;99.90
21861;DHT22;11095;48.066;8.540;2024-02-21T07:38:23;9.90;99.90
21861;DHT22;11095;48.066;8.540;2024-02-21T07:40:48;10.20;99.90
21861;DHT22;11095;48.066;8.540;2024-02-21T07:43:14;10.40;99.90
21861;DHT22;11095;48.066;8.540;2024-02-21T07:45:39;10.50;99.90
21861;DHT22;11095;48.066;8.540;2024-02-21T07:48:06;10.50;99.90
21861;DHT22;11095;48.066;8.540;2024-02-21T07:50:31;10.60;99.90
21861;DHT22;11095;48.066;8.540;2024-02-21T07:52:57;10.70;99.90
21861;DHT22;11095;48.066;8.540;2024-02-21T07:55:23;10.80;99.90
21861;DHT22;11095;48.066;8.540;2024-02-21T07:57:48;10.90;99.90
21861;DHT22;11095;48.066;8.540;2024-02-21T08:00:15;10.60;99.90
21861;DHT22;11095;48.066;8.540;2024-02-21T08:02:45;10.30;99.90
21861;DHT22;11095;48.066;8.540;2024-02-21T08:05:11;10.10;99.90
21861;DHT22;11095;48.066;8.540;2024-02-21T08:07:38;9.70;99.90
21861;DHT22;11095;48.066;8.540;2024-02-21T08:10:04;9.50;99.90
21861;DHT22;11095;48.066;8.540;2024-02-21T08:12:30;9.20;99.90
21861;DHT22;11095;48.066;8.540;2024-02-21T08:14:55;9.30;99.90
21861;DHT22;11095;48.066;8.540;2024-02-21T08:17:21;9.20;99.90
21861;DHT22;11095;48.066;8.540;2024-02-21T08:19:46;9.50;99.90
21861;DHT22;11095;48.066;8.540;2024-02-21T08:22:14;9.60;99.90
21861;DHT22;11095;48.066;8.540;2024-02-21T08:24:40;9.50;99.90
21861;DHT22;11095;48.066;8.540;2024-02-21T08:27:06;9.50;99.90
21861;DHT22;11095;48.066;8.540;2024-02-21T08:29:31;9.50;99.90
21861;DHT22;11095;48.066;8.540;2024-02-21T08:31:57;9.80;99.90
21861;DHT22;11095;48.066;8.540;2024-02-21T08:34:22;10.00;99.90
21861;DHT22;11095;48.066;8.540;2024-02-21T08:36:48;10.10;99.90
21861;DHT22;11095;48.066;8.540;2024-02-21T08:39:13;10.20;99.90
21861;DHT22;11095;48.066;8.540;2024-02-21T08:41:42;10.30;99.90
21861;DHT22;11095;48.066;8.540;2024-02-21T08:44:08;10.40;99.90
21861;DHT22;11095;48.066;8.540;2024-02-21T08:46:33;10.40;99.90
21861;DHT22;11095;48.066;8.540;2024-02-21T08:48:59;10.30;99.90
21861;DHT22;11095;48.066;8.540;2024-02-21T08:51:24;10.20;99.90
21861;DHT22;11095;48.066;8.540;2024-02-21T08:53:50;9.90;99.90
21861;DHT22;11095;48.066;8.540;2024-02-21T08:56:17;9.70;99.90
21861;DHT22;11095;48.066;8.540;2024-02-21T08:58:43;9.60;99.90
21861;DHT22;11095;48.066;8.540;2024-02-21T09:01:09;9.50;99.90
21861;DHT22;11095;48.066;8.540;2024-02-21T09:03:36;9.50;99.90
21861;DHT22;11095;48.066;8.540;2024-02-21T09:06:02;9.40;99.90
21861;DHT22;11095;48.066;8.540;2024-02-21T09:08:28;9.10;99.90
21861;DHT22;11095;48.066;8.540;2024-02-21T09:10:53;9.10;99.90
21861;DHT22;11095;48.066;8.540;2024-02-21T09:13:19;9.00;99.90
21861;DHT22;11095;48.066;8.540;2024-02-21T09:15:45;9.10;99.90
21861;DHT22;11095;48.066;8.540;2024-02-21T09:18:10;9.20;99.90
21861;DHT22;11095;48.066;8.540;2024-02-21T09:20:36;9.40;99.90
21861;DHT22;11095;48.066;8.540;2024-02-21T09:23:02;9.50;99.90
21861;DHT22;11095;48.066;8.540;2024-02-21T09:25:27;9.70;99.90
21861;DHT22;11095;48.066;8.540;2024-02-21T09:27:56;9.50;99.90
21861;DHT22;11095;48.066;8.540;2024-02-21T09:30:23;9.40;99.90
21861;DHT22;11095;48.066;8.540;2024-02-21T09:32:49;9.50;99.90
21861;DHT22;11095;48.066;8.540;2024-02-21T09:35:15;9.60;99.90
21861;DHT22;11095;48.066;8.540;2024-02-21T09:37:40;9.80;99.90
21861;DHT22;11095;48.066;8.540;2024-02-21T09:40:07;10.00;99.90
21861;DHT22;11095;48.066;8.540;2024-02-21T09:42:40;9.90;99.90
21861;DHT22;11095;48.066;8.540;2024-02-21T09:45:23;9.80;99.90
21861;DHT22;11095;48.066;8.540;2024-02-21T09:50:34;9.80;99.90
21861;DHT22;11095;48.066;8.540;2024-02-21T09:53:02;10.00;99.90
21861;DHT22;11095;48.066;8.540;2024-02-21T09:55:31;10.10;99.90
21861;DHT22;11095;48.066;8.540;2024-02-21T09:58:03;10.10;99.90
21861;DHT22;11095;48.066;8.540;2024-02-21T10:00:30;10.30;99.90
21861;DHT22;11095;48.066;8.540;2024-02-21T10:02:55;10.60;99.90
21861;DHT22;11095;48.066;8.540;2024-02-21T10:05:21;10.90;99.90
21861;DHT22;11095;48.066;8.540;2024-02-21T10:07:48;11.10;99.90
21861;DHT22;11095;48.066;8.540;2024-02-21T10:10:14;10.90;99.90
21861;DHT22;11095;48.066;8.540;2024-02-21T10:12:51;10.90;99.90
21861;DHT22;11095;48.066;8.540;2024-02-21T10:15:21;11.00;99.90
21861;DHT22;11095;48.066;8.540;2024-02-21T10:17:57;10.90;99.90
21861;DHT22;11095;48.066;8.540;2024-02-21T10:20:23;10.80;99.90
21861;DHT22;11095;48.066;8.540;2024-02-21T10:22:59;10.70;99.90
21861;DHT22;11095;48.066;8.540;2024-02-21T10:25:26;10.70;99.90
21861;DHT22;11095;48.066;8.540;2024-02-21T10:27:52;10.90;99.90
21861;DHT22;11095;48.066;8.540;2024-02-21T10:30:17;11.00;99.90
21861;DHT22;11095;48.066;8.540;2024-02-21T10:32:51;11.00;99.90
21861;DHT22;11095;48.066;8.540;2024-02-21T10:35:27;11.10;99.90
21861;DHT22;11095;48.066;8.540;2024-02-21T10:37:54;11.30;99.90
21861;DHT22;11095;48.066;8.540;2024-02-21T10:40:26;11.20;99.90
21861;DHT22;11095;48.066;8.540;2024-02-21T10:42:59;11.20;99.90
21861;DHT22;11095;48.066;8.540;2024-02-21T10:45:34;11.30;99.90
21861;DHT22;11095;48.066;8.540;2024-02-21T10:48:12;11.10;99.90
21861;DHT22;11095;48.066;8.540;2024-02-21T10:50:57;10.90;99.90
21861;DHT22;11095;48.066;8.540;2024-02-21T10:56:45;10.80;99.90
21861;DHT22;11095;48.066;8.540;2024-02-21T10:59:13;10.80;99.90
21861;DHT22;11095;48.066;8.540;2024-02-21T11:01:39;10.70;99.90
21861;DHT22;11095;48.066;8.540;2024-02-21T11:04:06;10.80;99.90
21861;DHT22;11095;48.066;8.540;2024-02-21T11:06:37;10.90;99.90
21861;DHT22;11095;48.066;8.540;2024-02-21T11:09:07;10.90;99.90
21861;DHT22;11095;48.066;8.540;2024-02-21T11:11:37;10.90;99.90
21861;DHT22;11095;48.066;8.540;2024-02-21T11:14:10;11.00;99.90
21861;DHT22;11095;48.066;8.540;2024-02-21T11:16:40;11.00;99.90
21861;DHT22;11095;48.066;8.540;2024-02-21T11:19:09;11.10;99.90
21861;DHT22;11095;48.066;8.540;2024-02-21T11:21:37;11.00;99.90
21861;DHT22;11095;48.066;8.540;2024-02-21T11:24:03;11.00;99.90
21861;DHT22;11095;48.066;8.540;2024-02-21T11:26:30;11.00;99.90
21861;DHT22;11095;48.066;8.540;2024-02-21T11:29:00;11.10;99.90
21861;DHT22;11095;48.066;8.540;2024-02-21T11:31:26;11.10;99.90
21861;DHT22;11095;48.066;8.540;2024-02-21T11:33:55;11.10;99.90
21861;DHT22;11095;48.066;8.540;2024-02-21T11:36:26;11.10;99.90
21861;DHT22;11095;48.066;8.540;2024-02-21T11:38:52;11.10;99.90
21861;DHT22;11095;48.066;8.540;2024-02-21T11:41:19;11.10;99.90
21861;DHT22;11095;48.066;8.540;2024-02-21T11:43:49;11.10;99.90
21861;DHT22;11095;48.066;8.540;2024-02-21T11:46:16;11.10;99.90
21861;DHT22;11095;48.066;8.540;2024-02-21T11:48:42;11.10;99.90
21861;DHT22;11095;48.066;8.540;2024-02-21T11:51:24;11.10;99.90
21861;DHT22;11095;48.066;8.540;2024-02-21T11:53:51;11.20;99.90
21861;DHT22;11095;48.066;8.540;2024-02-21T11:56:16;11.20;99.90
21861;DHT22;11095;48.066;8.540;2024-02-21T11:58:43;11.20;99.90
21861;DHT22;11095;48.066;8.540;2024-02-21T12:01:08;11.20;99.90
21861;DHT22;11095;48.066;8.540;2024-02-21T12:03:35;11.10;99.90
21861;DHT22;11095;48.066;8.540;2024-02-21T12:06:01;11.10;99.90
21861;DHT22;11095;48.066;8.540;2024-02-21T12:08:49;11.10;99.90
21861;DHT22;11095;48.066;8.540;2024-02-21T12:11:24;11.20;99.90
21861;DHT22;11095;48.066;8.540;2024-02-21T12:14:02;11.20;99.90
21861;DHT22;11095;48.066;8.540;2024-02-21T12:16:32;11.10;99.90
21861;DHT22;11095;48.066;8.540;2024-02-21T12:18:59;11.00;99.90
21861;DHT22;11095;48.066;8.540;2024-02-21T12:21:30;10.90;99.90
21861;DHT22;11095;48.066;8.540;2024-02-21T12:23:58;10.80;99.90
21861;DHT22;11095;48.066;8.540;2024-02-21T12:26:24;10.90;99.90
21861;DHT22;11095;48.066;8.540;2024-02-21T12:28:50;11.00;99.90
21861;DHT22;11095;48.066;8.540;2024-02-21T12:31:16;10.90;99.90
21861;DHT22;11095;48.066;8.540;2024-02-21T12:33:43;10.90;99.90
21861;DHT22;11095;48.066;8.540;2024-02-21T12:36:08;10.90;99.90
21861;DHT22;11095;48.066;8.540;2024-02-21T12:38:37;11.00;99.90
21861;DHT22;11095;48.066;8.540;2024-02-21T12:41:03;11.00;99.90
21861;DHT22;11095;48.066;8.540;2024-02-21T12:43:29;11.00;99.90
21861;DHT22;11095;48.066;8.540;2024-02-21T12:45:54;11.00;99.90
21861;DHT22;11095;48.066;8.540;2024-02-21T12:48:20;11.00;99.90
21861;DHT22;11095;48.066;8.540;2024-02-21T12:50:49;11.00;99.90
21861;DHT22;11095;48.066;8.540;2024-02-21T12:53:19;11.00;99.90
21861;DHT22;11095;48.066;8.540;2024-02-21T12:55:47;11.00;99.90
21861;DHT22;11095;48.066;8.540;2024-02-21T12:58:13;10.90;99.90
21861;DHT22;11095;48.066;8.540;2024-02-21T13:00:39;10.90;99.90
21861;DHT22;11095;48.066;8.540;2024-02-21T13:03:05;11.00;99.90
21861;DHT22;11095;48.066;8.540;2024-02-21T13:05:30;11.10;99.90
21861;DHT22;11095;48.066;8.540;2024-02-21T13:07:58;11.10;99.90
21861;DHT22;11095;48.066;8.540;2024-02-21T13:10:23;11.20;99.90
21861;DHT22;11095;48.066;8.540;2024-02-21T13:12:49;11.10;99.90
21861;DHT22;11095;48.066;8.540;2024-02-21T13:15:14;11.00;99.90
21861;DHT22;11095;48.066;8.540;2024-02-21T13:17:41;11.10;99.90
21861;DHT22;11095;48.066;8.540;2024-02-21T13:20:07;11.20;99.90
21861;DHT22;11095;48.066;8.540;2024-02-21T13:22:34;11.10;99.90
21861;DHT22;11095;48.066;8.540;2024-02-21T13:25:00;11.20;99.90
21861;DHT22;11095;48.066;8.540;2024-02-21T13:27:25;11.10;99.90
21861;DHT22;11095;48.066;8.540;2024-02-21T13:29:51;11.00;99.90
21861;DHT22;11095;48.066;8.540;2024-02-21T13:32:18;11.00;99.90
21861;DHT22;11095;48.066;8.540;2024-02-21T13:34:44;11.00;99.90
21861;DHT22;11095;48.066;8.540;2024-02-21T13:37:09;11.00;99.90
21861;DHT22;11095;48.066;8.540;2024-02-21T13:39:36;11.00;99.90
21861;DHT22;11095;48.066;8.540;2024-02-21T13:42:02;11.00;99.90
21861;DHT22;11095;48.066;8.540;2024-02-21T13:44:28;11.10;99.90
21861;DHT22;11095;48.066;8.540;2024-02-21T13:46:53;11.10;99.90
21861;DHT22;11095;48.066;8.540;2024-02-21T13:49:19;11.20;99.90
21861;DHT22;11095;48.066;8.540;2024-02-21T13:51:45;11.00;99.90
21861;DHT22;11095;48.066;8.540;2024-02-21T13:54:11;10.90;99.90
21861;DHT22;11095;48.066;8.540;2024-02-21T13:56:39;11.00;99.90
21861;DHT22;11095;48.066;8.540;2024-02-21T13:59:05;11.00;99.90
21861;DHT22;11095;48.066;8.540;2024-02-21T14:01:30;11.00;99.90
21861;DHT22;11095;48.066;8.540;2024-02-21T14:03:57;10.90;99.90
21861;DHT22;11095;48.066;8.540;2024-02-21T14:06:22;10.80;99.90
21861;DHT22;11095;48.066;8.540;2024-02-21T14:08:48;10.60;99.90
21861;DHT22;11095;48.066;8.540;2024-02-21T14:11:14;10.60;99.90
21861;DHT22;11095;48.066;8.540;2024-02-21T14:13:40;10.50;99.90
21861;DHT22;11095;48.066;8.540;2024-02-21T14:16:09;10.50;99.90
21861;DHT22;11095;48.066;8.540;2024-02-21T14:18:37;10.40;99.90
21861;DHT22;11095;48.066;8.540;2024-02-21T14:21:03;10.30;99.90
21861;DHT22;11095;48.066;8.540;2024-02-21T14:23:29;10.30;99.90
21861;DHT22;11095;48.066;8.540;2024-02-21T14:25:54;10.20;99.90
21861;DHT22;11095;48.066;8.540;2024-02-21T14:28:20;10.20;99.90
21861;DHT22;11095;48.066;8.540;2024-02-21T14:30:46;10.10;99.90
21861;DHT22;11095;48.066;8.540;2024-02-21T14:33:12;10.00;99.90
21861;DHT22;11095;48.066;8.540;2024-02-21T14:35:38;9.90;99.90
21861;DHT22;11095;48.066;8.540;2024-02-21T14:38:04;9.90;99.90
21861;DHT22;11095;48.066;8.540;2024-02-21T14:40:29;9.80;99.90
21861;DHT22;11095;48.066;8.540;2024-02-21T14:42:55;9.80;99.90
21861;DHT22;11095;48.066;8.540;2024-02-21T14:45:21;9.80;99.90
21861;DHT22;11095;48.066;8.540;2024-02-21T14:47:48;9.70;99.90
21861;DHT22;11095;48.066;8.540;2024-02-21T14:50:14;9.70;99.90
21861;DHT22;11095;48.066;8.540;2024-02-21T14:52:39;9.70;99.90
21861;DHT22;11095;48.066;8.540;2024-02-21T14:55:05;9.70;99.90
21861;DHT22;11095;48.066;8.540;2024-02-21T14:57:31;9.80;99.90
21861;DHT22;11095;48.066;8.540;2024-02-21T14:59:56;9.80;99.90
21861;DHT22;11095;48.066;8.540;2024-02-21T15:02:24;9.80;99.90
21861;DHT22;11095;48.066;8.540;2024-02-21T15:04:50;9.80;99.90
21861;DHT22;11095;48.066;8.540;2024-02-21T15:07:17;9.80;99.90
21861;DHT22;11095;48.066;8.540;2024-02-21T15:09:42;9.80;99.90
21861;DHT22;11095;48.066;8.540;2024-02-21T15:12:08;9.80;99.90
21861;DHT22;11095;48.066;8.540;2024-02-21T15:14:34;9.70;99.90
21861;DHT22;11095;48.066;8.540;2024-02-21T15:16:59;9.60;99.90
21861;DHT22;11095;48.066;8.540;2024-02-21T15:19:25;9.50;99.90
21861;DHT22;11095;48.066;8.540;2024-02-21T15:21:51;9.40;99.90
21861;DHT22;11095;48.066;8.540;2024-02-21T15:24:16;9.40;99.90
21861;DHT22;11095;48.066;8.540;2024-02-21T15:26:43;9.40;99.90
21861;DHT22;11095;48.066;8.540;2024-02-21T15:29:09;9.40;99.90
21861;DHT22;11095;48.066;8.540;2024-02-21T15:31:34;9.40;99.90
21861;DHT22;11095;48.066;8.540;2024-02-21T15:34:00;9.30;99.90
21861;DHT22;11095;48.066;8.540;2024-02-21T15:36:25;9.30;99.90
21861;DHT22;11095;48.066;8.540;2024-02-21T15:38:53;9.30;99.90
21861;DHT22;11095;48.066;8.540;2024-02-21T15:41:19;9.20;99.90
21861;DHT22;11095;48.066;8.540;2024-02-21T15:43:46;9.20;99.90